sensor_id;sensor_type;location;lat;lon;timestamp;P1;durP1;ratioP1;P2;durP2;ratioP2
18501;SDS011;68437;52.236;5.710;2024-01-10T00:01:43;12.10;;;5.07;;
18501;SDS011;68437;52.236;5.710;2024-01-10T00:04:10;14.53;;;5.43;;
18501;SDS011;68437;52.236;5.710;2024-01-10T00:06:37;11.07;;;4.70;;
18501;SDS011;68437;52.236;5.710;2024-01-10T00:09:04;18.07;;;5.50;;
18501;SDS011;68437;52.236;5.710;2024-01-10T00:11:32;11.73;;;5.03;;
18501;SDS011;68437;52.236;5.710;2024-01-10T00:13:59;11.97;;;4.90;;
18501;SDS011;68437;52.236;5.710;2024-01-10T00:16:28;10.90;;;5.20;;
18501;SDS011;68437;52.236;5.710;2024-01-10T00:18:55;13.40;;;5.63;;
18501;SDS011;68437;52.236;5.710;2024-01-10T00:21:22;10.10;;;4.90;;
18501;SDS011;68437;52.236;5.710;2024-01-10T00:23:48;16.47;;;5.30;;
18501;SDS011;68437;52.236;5.710;2024-01-10T00:26:15;11.40;;;4.60;;
18501;SDS011;68437;52.236;5.710;2024-01-10T00:28:43;12.87;;;4.93;;
18501;SDS011;68437;52.236;5.710;2024-01-10T00:31:11;11.63;;;4.80;;
18501;SDS011;68437;52.236;5.710;2024-01-10T00:33:38;10.93;;;5.17;;
18501;SDS011;68437;52.236;5.710;2024-01-10T00:36:05;11.30;;;4.87;;
18501;SDS011;68437;52.236;5.710;2024-01-10T00:38:32;11.33;;;4.87;;
18501;SDS011;68437;52.236;5.710;2024-01-10T00:40:59;10.90;;;4.60;;
18501;SDS011;68437;52.236;5.710;2024-01-10T00:43:26;12.40;;;4.73;;
18501;SDS011;68437;52.236;5.710;2024-01-10T00:45:54;13.47;;;5.30;;
18501;SDS011;68437;52.236;5.710;2024-01-10T00:48:21;12.97;;;5.57;;
18501;SDS011;68437;52.236;5.710;2024-01-10T00:50:47;12.80;;;5.10;;
18501;SDS011;68437;52.236;5.710;2024-01-10T00:53:14;12.23;;;5.27;;
18501;SDS011;68437;52.236;5.710;2024-01-10T00:55:41;12.33;;;5.07;;
18501;SDS011;68437;52.236;5.710;2024-01-10T00:58:08;14.30;;;5.23;;
18501;SDS011;68437;52.236;5.710;2024-01-10T01:00:35;12.87;;;5.70;;
18501;SDS011;68437;52.236;5.710;2024-01-10T01:03:03;9.73;;;4.83;;
18501;SDS011;68437;52.236;5.710;2024-01-10T01:05:30;13.67;;;5.13;;
18501;SDS011;68437;52.236;5.710;2024-01-10T01:07:59;15.80;;;5.17;;
18501;SDS011;68437;52.236;5.710;2024-01-10T01:10:26;11.93;;;5.57;;
18501;SDS011;68437;52.236;5.710;2024-01-10T01:12:52;15.47;;;5.63;;
18501;SDS011;68437;52.236;5.710;2024-01-10T01:15:20;11.97;;;4.97;;
18501;SDS011;68437;52.236;5.710;2024-01-10T01:17:47;14.47;;;5.40;;
18501;SDS011;68437;52.236;5.710;2024-01-10T01:20:15;11.23;;;5.20;;
18501;SDS011;68437;52.236;5.710;2024-01-10T01:22:42;13.23;;;5.40;;
18501;SDS011;68437;52.236;5.710;2024-01-10T01:25:09;12.13;;;5.30;;
18501;SDS011;68437;52.236;5.710;2024-01-10T01:27:35;17.60;;;5.53;;
18501;SDS011;68437;52.236;5.710;2024-01-10T01:30:03;12.97;;;5.27;;
18501;SDS011;68437;52.236;5.710;2024-01-10T01:32:30;15.00;;;5.57;;
18501;SDS011;68437;52.236;5.710;2024-01-10T01:34:57;11.17;;;5.27;;
18501;SDS011;68437;52.236;5.710;2024-01-10T01:37:25;13.60;;;5.30;;
18501;SDS011;68437;52.236;5.710;2024-01-10T01:39:53;13.10;;;5.40;;
18501;SDS011;68437;52.236;5.710;2024-01-10T01:42:20;9.57;;;5.17;;
18501;SDS011;68437;52.236;5.710;2024-01-10T01:44:47;13.60;;;5.37;;
18501;SDS011;68437;52.236;5.710;2024-01-10T01:47:14;13.60;;;5.53;;
18501;SDS011;68437;52.236;5.710;2024-01-10T01:49:41;12.20;;;5.40;;
18501;SDS011;68437;52.236;5.710;2024-01-10T01:52:08;15.60;;;5.60;;
18501;SDS011;68437;52.236;5.710;2024-01-10T01:54:37;18.57;;;5.50;;
18501;SDS011;68437;52.236;5.710;2024-01-10T01:57:04;12.63;;;5.40;;
18501;SDS011;68437;52.236;5.710;2024-01-10T01:59:31;17.47;;;5.77;;
18501;SDS011;68437;52.236;5.710;2024-01-10T02:01:59;11.50;;;5.60;;
18501;SDS011;68437;52.236;5.710;2024-01-10T02:04:29;14.60;;;5.53;;
18501;SDS011;68437;52.236;5.710;2024-01-10T02:06:57;14.83;;;6.03;;
18501;SDS011;68437;52.236;5.710;2024-01-10T02:09:23;14.80;;;5.37;;
18501;SDS011;68437;52.236;5.710;2024-01-10T02:11:52;12.33;;;5.57;;
18501;SDS011;68437;52.236;5.710;2024-01-10T02:14:19;15.57;;;5.93;;
18501;SDS011;68437;52.236;5.710;2024-01-10T02:16:47;15.33;;;6.53;;
18501;SDS011;68437;52.236;5.710;2024-01-10T02:19:17;14.73;;;6.57;;
18501;SDS011;68437;52.236;5.710;2024-01-10T02:21:45;14.00;;;5.93;;
18501;SDS011;68437;52.236;5.710;2024-01-10T02:24:12;14.80;;;5.93;;
18501;SDS011;68437;52.236;5.710;2024-01-10T02:26:40;16.13;;;5.97;;
18501;SDS011;68437;52.236;5.710;2024-01-10T02:29:09;16.00;;;6.10;;
18501;SDS011;68437;52.236;5.710;2024-01-10T02:31:35;15.40;;;6.37;;
18501;SDS011;68437;52.236;5.710;2024-01-10T02:34:02;17.50;;;6.03;;
18501;SDS011;68437;52.236;5.710;2024-01-10T02:36:28;14.43;;;6.27;;
18501;SDS011;68437;52.236;5.710;2024-01-10T02:38:57;16.47;;;5.90;;
18501;SDS011;68437;52.236;5.710;2024-01-10T02:41:23;17.97;;;6.20;;
18501;SDS011;68437;52.236;5.710;2024-01-10T02:43:51;15.87;;;6.47;;
18501;SDS011;68437;52.236;5.710;2024-01-10T02:46:18;17.67;;;6.70;;
18501;SDS011;68437;52.236;5.710;2024-01-10T02:48:48;15.90;;;6.60;;
18501;SDS011;68437;52.236;5.710;2024-01-10T02:51:15;12.53;;;5.77;;
18501;SDS011;68437;52.236;5.710;2024-01-10T02:53:41;16.67;;;6.53;;
18501;SDS011;68437;52.236;5.710;2024-01-10T02:56:08;15.60;;;6.83;;
18501;SDS011;68437;52.236;5.710;2024-01-10T02:58:35;13.53;;;5.93;;
18501;SDS011;68437;52.236;5.710;2024-01-10T03:01:03;14.60;;;6.10;;
18501;SDS011;68437;52.236;5.710;2024-01-10T03:03:30;16.30;;;6.50;;
18501;SDS011;68437;52.236;5.710;2024-01-10T03:05:57;15.30;;;5.90;;
18501;SDS011;68437;52.236;5.710;2024-01-10T03:08:24;16.77;;;6.47;;
18501;SDS011;68437;52.236;5.710;2024-01-10T03:10:50;14.70;;;5.73;;
18501;SDS011;68437;52.236;5.710;2024-01-10T03:13:17;15.70;;;6.27;;
18501;SDS011;68437;52.236;5.710;2024-01-10T03:15:44;21.53;;;6.23;;
18501;SDS011;68437;52.236;5.710;2024-01-10T03:18:12;15.70;;;6.80;;
18501;SDS011;68437;52.236;5.710;2024-01-10T03:20:39;15.70;;;6.13;;
18501;SDS011;68437;52.236;5.710;2024-01-10T03:23:06;15.00;;;6.10;;
18501;SDS011;68437;52.236;5.710;2024-01-10T03:25:33;13.80;;;6.30;;
18501;SDS011;68437;52.236;5.710;2024-01-10T03:27:59;13.83;;;6.47;;
18501;SDS011;68437;52.236;5.710;2024-01-10T03:30:31;15.70;;;6.67;;
18501;SDS011;68437;52.236;5.710;2024-01-10T03:32:58;16.83;;;6.57;;
18501;SDS011;68437;52.236;5.710;2024-01-10T03:35:26;13.17;;;5.90;;
18501;SDS011;68437;52.236;5.710;2024-01-10T03:37:53;14.43;;;6.30;;
18501;SDS011;68437;52.236;5.710;2024-01-10T03:40:22;16.23;;;6.60;;
18501;SDS011;68437;52.236;5.710;2024-01-10T03:42:49;14.50;;;5.90;;
18501;SDS011;68437;52.236;5.710;2024-01-10T03:45:16;13.80;;;6.07;;
18501;SDS011;68437;52.236;5.710;2024-01-10T03:47:45;17.03;;;6.03;;
18501;SDS011;68437;52.236;5.710;2024-01-10T03:50:15;15.10;;;6.00;;
18501;SDS011;68437;52.236;5.710;2024-01-10T03:52:44;14.90;;;6.30;;
18501;SDS011;68437;52.236;5.710;2024-01-10T03:55:11;17.47;;;6.63;;
18501;SDS011;68437;52.236;5.710;2024-01-10T03:57:40;14.70;;;6.10;;
18501;SDS011;68437;52.236;5.710;2024-01-10T04:00:07;17.73;;;6.33;;
18501;SDS011;68437;52.236;5.710;2024-01-10T04:02:35;17.63;;;6.37;;
18501;SDS011;68437;52.236;5.710;2024-01-10T04:05:05;14.57;;;6.57;;
18501;SDS011;68437;52.236;5.710;2024-01-10T04:07:32;15.03;;;6.17;;
18501;SDS011;68437;52.236;5.710;2024-01-10T04:10:01;14.33;;;6.30;;
18501;SDS011;68437;52.236;5.710;2024-01-10T04:12:28;16.17;;;6.80;;
18501;SDS011;68437;52.236;5.710;2024-01-10T04:14:54;17.80;;;6.33;;
18501;SDS011;68437;52.236;5.710;2024-01-10T04:17:21;14.70;;;6.10;;
18501;SDS011;68437;52.236;5.710;2024-01-10T04:19:48;15.10;;;6.23;;
18501;SDS011;68437;52.236;5.710;2024-01-10T04:22:15;14.33;;;5.90;;
18501;SDS011;68437;52.236;5.710;2024-01-10T04:24:43;18.40;;;6.27;;
18501;SDS011;68437;52.236;5.710;2024-01-10T04:27:11;18.23;;;6.47;;
18501;SDS011;68437;52.236;5.710;2024-01-10T04:29:37;16.60;;;6.17;;
18501;SDS011;68437;52.236;5.710;2024-01-10T04:32:05;17.63;;;6.60;;
18501;SDS011;68437;52.236;5.710;2024-01-10T04:34:32;14.93;;;6.13;;
18501;SDS011;68437;52.236;5.710;2024-01-10T04:36:59;16.53;;;6.60;;
18501;SDS011;68437;52.236;5.710;2024-01-10T04:39:26;17.40;;;6.80;;
18501;SDS011;68437;52.236;5.710;2024-01-10T04:41:53;17.57;;;6.80;;
18501;SDS011;68437;52.236;5.710;2024-01-10T04:44:21;17.03;;;6.60;;
18501;SDS011;68437;52.236;5.710;2024-01-10T04:46:48;15.07;;;6.43;;
18501;SDS011;68437;52.236;5.710;2024-01-10T04:49:15;16.63;;;6.67;;
18501;SDS011;68437;52.236;5.710;2024-01-10T04:51:41;16.40;;;7.07;;
18501;SDS011;68437;52.236;5.710;2024-01-10T04:54:08;16.57;;;7.03;;
18501;SDS011;68437;52.236;5.710;2024-01-10T04:56:36;15.77;;;6.50;;
18501;SDS011;68437;52.236;5.710;2024-01-10T04:59:03;16.97;;;7.30;;
18501;SDS011;68437;52.236;5.710;2024-01-10T05:01:31;17.97;;;7.33;;
18501;SDS011;68437;52.236;5.710;2024-01-10T05:03:58;18.00;;;7.00;;
18501;SDS011;68437;52.236;5.710;2024-01-10T05:06:25;20.77;;;7.53;;
18501;SDS011;68437;52.236;5.710;2024-01-10T05:08:52;21.30;;;7.47;;
18501;SDS011;68437;52.236;5.710;2024-01-10T05:11:22;23.90;;;7.00;;
18501;SDS011;68437;52.236;5.710;2024-01-10T05:13:50;21.30;;;7.97;;
18501;SDS011;68437;52.236;5.710;2024-01-10T05:16:17;17.40;;;7.33;;
18501;SDS011;68437;52.236;5.710;2024-01-10T05:18:48;18.80;;;7.20;;
18501;SDS011;68437;52.236;5.710;2024-01-10T05:21:15;21.10;;;7.73;;
18501;SDS011;68437;52.236;5.710;2024-01-10T05:23:42;18.50;;;7.37;;
18501;SDS011;68437;52.236;5.710;2024-01-10T05:26:09;18.17;;;7.23;;
18501;SDS011;68437;52.236;5.710;2024-01-10T05:28:36;19.03;;;6.90;;
18501;SDS011;68437;52.236;5.710;2024-01-10T05:31:02;14.83;;;6.33;;
18501;SDS011;68437;52.236;5.710;2024-01-10T05:33:29;17.80;;;7.57;;
18501;SDS011;68437;52.236;5.710;2024-01-10T05:35:58;19.63;;;7.60;;
18501;SDS011;68437;52.236;5.710;2024-01-10T05:38:25;17.23;;;7.27;;
18501;SDS011;68437;52.236;5.710;2024-01-10T05:40:52;18.50;;;7.47;;
18501;SDS011;68437;52.236;5.710;2024-01-10T05:43:19;19.43;;;7.70;;
18501;SDS011;68437;52.236;5.710;2024-01-10T05:45:46;17.57;;;6.50;;
18501;SDS011;68437;52.236;5.710;2024-01-10T05:48:13;15.07;;;6.73;;
18501;SDS011;68437;52.236;5.710;2024-01-10T05:50:42;22.43;;;7.47;;
18501;SDS011;68437;52.236;5.710;2024-01-10T05:53:10;20.00;;;7.43;;
18501;SDS011;68437;52.236;5.710;2024-01-10T05:55:39;18.20;;;7.10;;
18501;SDS011;68437;52.236;5.710;2024-01-10T05:58:08;18.50;;;7.33;;
18501;SDS011;68437;52.236;5.710;2024-01-10T06:00:35;16.77;;;7.10;;
18501;SDS011;68437;52.236;5.710;2024-01-10T06:03:02;15.93;;;6.73;;
18501;SDS011;68437;52.236;5.710;2024-01-10T06:05:29;17.47;;;6.70;;
18501;SDS011;68437;52.236;5.710;2024-01-10T06:07:57;17.20;;;6.73;;
18501;SDS011;68437;52.236;5.710;2024-01-10T06:10:25;16.47;;;6.60;;
18501;SDS011;68437;52.236;5.710;2024-01-10T06:12:54;18.53;;;7.00;;
18501;SDS011;68437;52.236;5.710;2024-01-10T06:15:21;16.37;;;6.23;;
18501;SDS011;68437;52.236;5.710;2024-01-10T06:17:48;16.77;;;6.70;;
18501;SDS011;68437;52.236;5.710;2024-01-10T06:20:15;18.50;;;6.60;;
18501;SDS011;68437;52.236;5.710;2024-01-10T06:22:41;18.37;;;6.53;;
18501;SDS011;68437;52.236;5.710;2024-01-10T06:25:10;18.27;;;6.53;;
18501;SDS011;68437;52.236;5.710;2024-01-10T06:27:38;17.37;;;6.50;;
18501;SDS011;68437;52.236;5.710;2024-01-10T06:30:06;18.43;;;7.70;;
18501;SDS011;68437;52.236;5.710;2024-01-10T06:32:34;20.43;;;7.03;;
18501;SDS011;68437;52.236;5.710;2024-01-10T06:35:01;17.50;;;6.67;;
18501;SDS011;68437;52.236;5.710;2024-01-10T06:37:29;16.43;;;6.33;;
18501;SDS011;68437;52.236;5.710;2024-01-10T06:39:56;17.03;;;6.80;;
18501;SDS011;68437;52.236;5.710;2024-01-10T06:42:25;16.03;;;6.53;;
18501;SDS011;68437;52.236;5.710;2024-01-10T06:44:53;18.03;;;6.90;;
18501;SDS011;68437;52.236;5.710;2024-01-10T06:47:20;17.77;;;6.90;;
18501;SDS011;68437;52.236;5.710;2024-01-10T06:49:49;21.00;;;7.03;;
18501;SDS011;68437;52.236;5.710;2024-01-10T06:52:16;15.77;;;6.83;;
18501;SDS011;68437;52.236;5.710;2024-01-10T06:54:43;17.20;;;7.50;;
18501;SDS011;68437;52.236;5.710;2024-01-10T06:57:10;16.03;;;6.13;;
18501;SDS011;68437;52.236;5.710;2024-01-10T06:59:37;16.20;;;6.63;;
18501;SDS011;68437;52.236;5.710;2024-01-10T07:02:05;15.37;;;6.67;;
18501;SDS011;68437;52.236;5.710;2024-01-10T07:04:38;17.17;;;6.10;;
18501;SDS011;68437;52.236;5.710;2024-01-10T07:07:05;17.03;;;6.70;;
18501;SDS011;68437;52.236;5.710;2024-01-10T07:09:33;16.87;;;6.27;;
18501;SDS011;68437;52.236;5.710;2024-01-10T07:12:00;18.07;;;6.67;;
18501;SDS011;68437;52.236;5.710;2024-01-10T07:14:29;17.17;;;5.83;;
18501;SDS011;68437;52.236;5.710;2024-01-10T07:16:56;20.10;;;7.37;;
18501;SDS011;68437;52.236;5.710;2024-01-10T07:19:24;15.27;;;6.30;;
18501;SDS011;68437;52.236;5.710;2024-01-10T07:21:54;18.97;;;6.10;;
18501;SDS011;68437;52.236;5.710;2024-01-10T07:24:20;14.73;;;6.23;;
18501;SDS011;68437;52.236;5.710;2024-01-10T07:26:50;15.07;;;5.90;;
18501;SDS011;68437;52.236;5.710;2024-01-10T07:29:17;19.87;;;6.10;;
18501;SDS011;68437;52.236;5.710;2024-01-10T07:31:44;15.33;;;5.97;;
18501;SDS011;68437;52.236;5.710;2024-01-10T07:34:13;16.13;;;6.10;;
18501;SDS011;68437;52.236;5.710;2024-01-10T07:36:44;15.57;;;6.30;;
18501;SDS011;68437;52.236;5.710;2024-01-10T07:39:10;15.37;;;6.30;;
18501;SDS011;68437;52.236;5.710;2024-01-10T07:41:40;14.17;;;5.97;;
18501;SDS011;68437;52.236;5.710;2024-01-10T07:44:07;15.47;;;6.17;;
18501;SDS011;68437;52.236;5.710;2024-01-10T07:46:35;15.80;;;6.50;;
18501;SDS011;68437;52.236;5.710;2024-01-10T07:49:02;17.00;;;6.00;;
18501;SDS011;68437;52.236;5.710;2024-01-10T07:51:30;16.17;;;6.00;;
18501;SDS011;68437;52.236;5.710;2024-01-10T07:54:00;15.70;;;5.93;;
18501;SDS011;68437;52.236;5.710;2024-01-10T07:56:27;17.03;;;6.30;;
18501;SDS011;68437;52.236;5.710;2024-01-10T07:58:55;19.77;;;6.70;;
18501;SDS011;68437;52.236;5.710;2024-01-10T08:01:22;17.60;;;6.77;;
18501;SDS011;68437;52.236;5.710;2024-01-10T08:03:48;16.40;;;6.40;;
18501;SDS011;68437;52.236;5.710;2024-01-10T08:06:15;19.83;;;6.57;;
18501;SDS011;68437;52.236;5.710;2024-01-10T08:08:42;19.63;;;6.10;;
18501;SDS011;68437;52.236;5.710;2024-01-10T08:11:10;19.80;;;6.67;;
18501;SDS011;68437;52.236;5.710;2024-01-10T08:13:37;16.00;;;6.57;;
18501;SDS011;68437;52.236;5.710;2024-01-10T08:16:04;16.30;;;5.93;;
18501;SDS011;68437;52.236;5.710;2024-01-10T08:18:34;15.37;;;6.37;;
18501;SDS011;68437;52.236;5.710;2024-01-10T08:21:01;16.07;;;6.30;;
18501;SDS011;68437;52.236;5.710;2024-01-10T08:23:29;15.97;;;5.93;;
18501;SDS011;68437;52.236;5.710;2024-01-10T08:25:56;15.17;;;6.00;;
18501;SDS011;68437;52.236;5.710;2024-01-10T08:28:24;14.97;;;6.60;;
18501;SDS011;68437;52.236;5.710;2024-01-10T08:30:51;15.37;;;6.27;;
18501;SDS011;68437;52.236;5.710;2024-01-10T08:33:18;20.10;;;6.57;;
18501;SDS011;68437;52.236;5.710;2024-01-10T08:35:45;16.87;;;6.87;;
18501;SDS011;68437;52.236;5.710;2024-01-10T08:38:12;17.30;;;6.70;;
18501;SDS011;68437;52.236;5.710;2024-01-10T08:40:41;14.57;;;6.20;;
18501;SDS011;68437;52.236;5.710;2024-01-10T08:43:08;18.30;;;6.83;;
18501;SDS011;68437;52.236;5.710;2024-01-10T08:45:36;20.43;;;6.80;;
18501;SDS011;68437;52.236;5.710;2024-01-10T08:48:03;17.23;;;7.20;;
18501;SDS011;68437;52.236;5.710;2024-01-10T08:50:31;17.13;;;6.77;;
18501;SDS011;68437;52.236;5.710;2024-01-10T08:52:59;16.27;;;6.10;;
18501;SDS011;68437;52.236;5.710;2024-01-10T08:55:28;17.40;;;6.63;;
18501;SDS011;68437;52.236;5.710;2024-01-10T08:57:56;15.23;;;6.07;;
18501;SDS011;68437;52.236;5.710;2024-01-10T09:00:22;16.63;;;6.30;;
18501;SDS011;68437;52.236;5.710;2024-01-10T09:02:51;15.10;;;6.80;;
18501;SDS011;68437;52.236;5.710;2024-01-10T09:05:18;17.57;;;6.70;;
18501;SDS011;68437;52.236;5.710;2024-01-10T09:07:46;17.90;;;6.70;;
18501;SDS011;68437;52.236;5.710;2024-01-10T09:10:13;18.60;;;7.10;;
18501;SDS011;68437;52.236;5.710;2024-01-10T09:12:43;20.33;;;7.10;;
18501;SDS011;68437;52.236;5.710;2024-01-10T09:15:11;16.07;;;6.60;;
18501;SDS011;68437;52.236;5.710;2024-01-10T09:17:39;19.27;;;7.03;;
18501;SDS011;68437;52.236;5.710;2024-01-10T09:20:09;13.77;;;6.67;;
18501;SDS011;68437;52.236;5.710;2024-01-10T09:22:36;16.27;;;7.13;;
18501;SDS011;68437;52.236;5.710;2024-01-10T09:25:07;16.43;;;6.80;;
18501;SDS011;68437;52.236;5.710;2024-01-10T09:27:38;15.53;;;7.00;;
18501;SDS011;68437;52.236;5.710;2024-01-10T09:30:09;14.87;;;6.40;;
18501;SDS011;68437;52.236;5.710;2024-01-10T09:32:36;15.63;;;6.67;;
18501;SDS011;68437;52.236;5.710;2024-01-10T09:35:03;17.70;;;7.00;;
18501;SDS011;68437;52.236;5.710;2024-01-10T09:37:32;18.50;;;6.97;;
18501;SDS011;68437;52.236;5.710;2024-01-10T09:40:00;20.90;;;7.57;;
18501;SDS011;68437;52.236;5.710;2024-01-10T09:42:27;18.43;;;7.30;;
18501;SDS011;68437;52.236;5.710;2024-01-10T09:44:56;19.23;;;6.93;;
18501;SDS011;68437;52.236;5.710;2024-01-10T09:47:23;19.17;;;7.20;;
18501;SDS011;68437;52.236;5.710;2024-01-10T09:49:51;21.20;;;7.50;;
18501;SDS011;68437;52.236;5.710;2024-01-10T09:52:20;17.97;;;6.83;;
18501;SDS011;68437;52.236;5.710;2024-01-10T09:54:52;18.07;;;7.40;;
18501;SDS011;68437;52.236;5.710;2024-01-10T09:57:21;17.87;;;7.60;;
18501;SDS011;68437;52.236;5.710;2024-01-10T09:59:48;20.80;;;8.10;;
18501;SDS011;68437;52.236;5.710;2024-01-10T10:02:17;19.80;;;7.97;;
18501;SDS011;68437;52.236;5.710;2024-01-10T10:04:47;19.20;;;7.30;;
18501;SDS011;68437;52.236;5.710;2024-01-10T10:07:20;21.20;;;8.20;;
18501;SDS011;68437;52.236;5.710;2024-01-10T10:09:47;18.60;;;7.80;;
18501;SDS011;68437;52.236;5.710;2024-01-10T10:12:15;21.70;;;8.27;;
18501;SDS011;68437;52.236;5.710;2024-01-10T10:14:41;20.57;;;8.27;;
18501;SDS011;68437;52.236;5.710;2024-01-10T10:17:13;20.83;;;7.90;;
18501;SDS011;68437;52.236;5.710;2024-01-10T10:19:41;20.57;;;7.67;;
18501;SDS011;68437;52.236;5.710;2024-01-10T10:22:08;20.90;;;8.03;;
18501;SDS011;68437;52.236;5.710;2024-01-10T10:24:35;19.23;;;8.17;;
18501;SDS011;68437;52.236;5.710;2024-01-10T10:27:04;19.50;;;7.97;;
18501;SDS011;68437;52.236;5.710;2024-01-10T10:29:37;19.33;;;8.03;;
18501;SDS011;68437;52.236;5.710;2024-01-10T10:32:05;19.93;;;8.27;;
18501;SDS011;68437;52.236;5.710;2024-01-10T10:34:33;19.20;;;7.60;;
18501;SDS011;68437;52.236;5.710;2024-01-10T10:37:00;20.63;;;7.63;;
18501;SDS011;68437;52.236;5.710;2024-01-10T10:39:27;20.27;;;7.90;;
18501;SDS011;68437;52.236;5.710;2024-01-10T10:41:54;22.27;;;7.70;;
18501;SDS011;68437;52.236;5.710;2024-01-10T10:44:23;18.90;;;7.80;;
18501;SDS011;68437;52.236;5.710;2024-01-10T10:46:52;21.30;;;6.90;;
18501;SDS011;68437;52.236;5.710;2024-01-10T10:49:27;20.70;;;8.53;;
18501;SDS011;68437;52.236;5.710;2024-01-10T10:52:00;19.73;;;7.33;;
18501;SDS011;68437;52.236;5.710;2024-01-10T10:54:28;20.17;;;7.83;;
18501;SDS011;68437;52.236;5.710;2024-01-10T10:56:57;21.17;;;8.23;;
18501;SDS011;68437;52.236;5.710;2024-01-10T10:59:27;20.40;;;7.90;;
18501;SDS011;68437;52.236;5.710;2024-01-10T11:01:59;25.23;;;8.47;;
18501;SDS011;68437;52.236;5.710;2024-01-10T11:04:26;21.80;;;7.53;;
18501;SDS011;68437;52.236;5.710;2024-01-10T11:06:54;22.10;;;8.10;;
18501;SDS011;68437;52.236;5.710;2024-01-10T11:09:20;22.17;;;8.37;;
18501;SDS011;68437;52.236;5.710;2024-01-10T11:11:53;19.47;;;8.17;;
18501;SDS011;68437;52.236;5.710;2024-01-10T11:14:33;20.03;;;7.30;;
18501;SDS011;68437;52.236;5.710;2024-01-10T11:17:29;16.43;;;7.33;;
18501;SDS011;68437;52.236;5.710;2024-01-10T11:20:13;22.73;;;7.63;;
18501;SDS011;68437;52.236;5.710;2024-01-10T11:23:03;19.53;;;7.90;;
18501;SDS011;68437;52.236;5.710;2024-01-10T11:25:40;19.80;;;8.40;;
18501;SDS011;68437;52.236;5.710;2024-01-10T11:28:08;19.23;;;7.70;;
18501;SDS011;68437;52.236;5.710;2024-01-10T11:30:34;21.87;;;7.77;;
18501;SDS011;68437;52.236;5.710;2024-01-10T11:33:10;19.03;;;8.17;;
18501;SDS011;68437;52.236;5.710;2024-01-10T11:38:37;22.67;;;8.10;;
18501;SDS011;68437;52.236;5.710;2024-01-10T11:41:09;21.33;;;8.53;;
18501;SDS011;68437;52.236;5.710;2024-01-10T11:43:38;19.60;;;7.40;;
18501;SDS011;68437;52.236;5.710;2024-01-10T11:46:05;20.83;;;8.50;;
18501;SDS011;68437;52.236;5.710;2024-01-10T11:48:33;19.57;;;8.60;;
18501;SDS011;68437;52.236;5.710;2024-01-10T11:51:03;22.73;;;7.97;;
18501;SDS011;68437;52.236;5.710;2024-01-10T11:53:38;19.07;;;8.20;;
18501;SDS011;68437;52.236;5.710;2024-01-10T11:56:12;20.80;;;8.40;;
18501;SDS011;68437;52.236;5.710;2024-01-10T11:58:54;19.67;;;8.67;;
18501;SDS011;68437;52.236;5.710;2024-01-10T12:01:21;22.57;;;8.27;;
18501;SDS011;68437;52.236;5.710;2024-01-10T12:03:54;19.77;;;7.93;;
18501;SDS011;68437;52.236;5.710;2024-01-10T12:06:22;19.03;;;7.90;;
18501;SDS011;68437;52.236;5.710;2024-01-10T12:08:50;22.53;;;8.03;;
18501;SDS011;68437;52.236;5.710;2024-01-10T12:11:17;22.03;;;7.80;;
18501;SDS011;68437;52.236;5.710;2024-01-10T12:13:44;18.13;;;8.33;;
18501;SDS011;68437;52.236;5.710;2024-01-10T12:16:12;20.20;;;8.50;;
18501;SDS011;68437;52.236;5.710;2024-01-10T12:18:39;18.50;;;7.87;;
18501;SDS011;68437;52.236;5.710;2024-01-10T12:21:07;20.33;;;7.93;;
18501;SDS011;68437;52.236;5.710;2024-01-10T12:23:37;19.47;;;7.83;;
18501;SDS011;68437;52.236;5.710;2024-01-10T12:26:05;22.17;;;8.90;;
18501;SDS011;68437;52.236;5.710;2024-01-10T12:28:34;22.07;;;8.33;;
18501;SDS011;68437;52.236;5.710;2024-01-10T12:31:01;20.97;;;7.87;;
18501;SDS011;68437;52.236;5.710;2024-01-10T12:33:30;21.23;;;8.17;;
18501;SDS011;68437;52.236;5.710;2024-01-10T12:36:04;20.10;;;8.30;;
18501;SDS011;68437;52.236;5.710;2024-01-10T12:38:34;21.00;;;8.33;;
18501;SDS011;68437;52.236;5.710;2024-01-10T12:41:01;18.07;;;7.67;;
18501;SDS011;68437;52.236;5.710;2024-01-10T12:43:28;20.17;;;7.87;;
18501;SDS011;68437;52.236;5.710;2024-01-10T12:46:07;20.57;;;8.10;;
18501;SDS011;68437;52.236;5.710;2024-01-10T12:48:35;19.23;;;7.60;;
18501;SDS011;68437;52.236;5.710;2024-01-10T12:51:06;19.00;;;7.40;;
18501;SDS011;68437;52.236;5.710;2024-01-10T12:53:35;19.63;;;8.37;;
18501;SDS011;68437;52.236;5.710;2024-01-10T12:56:02;17.77;;;7.10;;
18501;SDS011;68437;52.236;5.710;2024-01-10T12:58:30;17.40;;;7.90;;
18501;SDS011;68437;52.236;5.710;2024-01-10T13:00:58;21.97;;;8.93;;
18501;SDS011;68437;52.236;5.710;2024-01-10T13:03:25;19.23;;;7.93;;
18501;SDS011;68437;52.236;5.710;2024-01-10T13:05:52;18.03;;;7.80;;
18501;SDS011;68437;52.236;5.710;2024-01-10T13:08:18;17.80;;;8.10;;
18501;SDS011;68437;52.236;5.710;2024-01-10T13:10:47;21.40;;;7.70;;
18501;SDS011;68437;52.236;5.710;2024-01-10T13:13:14;19.00;;;7.53;;
18501;SDS011;68437;52.236;5.710;2024-01-10T13:15:42;18.53;;;7.63;;
18501;SDS011;68437;52.236;5.710;2024-01-10T13:18:10;22.57;;;8.47;;
18501;SDS011;68437;52.236;5.710;2024-01-10T13:20:37;17.07;;;7.60;;
18501;SDS011;68437;52.236;5.710;2024-01-10T13:23:04;19.73;;;7.43;;
18501;SDS011;68437;52.236;5.710;2024-01-10T13:25:31;20.73;;;8.13;;
18501;SDS011;68437;52.236;5.710;2024-01-10T13:27:59;17.97;;;7.53;;
18501;SDS011;68437;52.236;5.710;2024-01-10T13:30:26;20.70;;;7.80;;
18501;SDS011;68437;52.236;5.710;2024-01-10T13:32:53;22.33;;;7.50;;
18501;SDS011;68437;52.236;5.710;2024-01-10T13:35:20;17.07;;;7.10;;
18501;SDS011;68437;52.236;5.710;2024-01-10T13:37:47;16.33;;;7.17;;
18501;SDS011;68437;52.236;5.710;2024-01-10T13:40:14;16.83;;;7.40;;
18501;SDS011;68437;52.236;5.710;2024-01-10T13:42:42;15.87;;;6.90;;
18501;SDS011;68437;52.236;5.710;2024-01-10T13:45:10;16.40;;;7.23;;
18501;SDS011;68437;52.236;5.710;2024-01-10T13:47:37;17.23;;;7.23;;
18501;SDS011;68437;52.236;5.710;2024-01-10T13:50:05;16.77;;;7.63;;
18501;SDS011;68437;52.236;5.710;2024-01-10T13:52:33;17.73;;;7.40;;
18501;SDS011;68437;52.236;5.710;2024-01-10T13:55:00;20.33;;;7.50;;
18501;SDS011;68437;52.236;5.710;2024-01-10T13:57:29;17.17;;;7.60;;
18501;SDS011;68437;52.236;5.710;2024-01-10T13:59:57;15.67;;;7.07;;
18501;SDS011;68437;52.236;5.710;2024-01-10T14:02:28;18.23;;;7.47;;
18501;SDS011;68437;52.236;5.710;2024-01-10T14:04:55;16.37;;;6.97;;
18501;SDS011;68437;52.236;5.710;2024-01-10T14:07:22;15.70;;;6.43;;
18501;SDS011;68437;52.236;5.710;2024-01-10T14:09:50;20.60;;;6.87;;
18501;SDS011;68437;52.236;5.710;2024-01-10T14:12:19;17.53;;;7.30;;
18501;SDS011;68437;52.236;5.710;2024-01-10T14:14:47;18.10;;;7.40;;
18501;SDS011;68437;52.236;5.710;2024-01-10T14:17:14;15.50;;;6.60;;
18501;SDS011;68437;52.236;5.710;2024-01-10T14:19:42;19.50;;;7.00;;
18501;SDS011;68437;52.236;5.710;2024-01-10T14:22:09;24.40;;;8.77;;
18501;SDS011;68437;52.236;5.710;2024-01-10T14:24:36;20.83;;;7.97;;
18501;SDS011;68437;52.236;5.710;2024-01-10T14:27:05;18.07;;;7.67;;
18501;SDS011;68437;52.236;5.710;2024-01-10T14:29:33;19.37;;;8.40;;
18501;SDS011;68437;52.236;5.710;2024-01-10T14:31:59;18.87;;;7.43;;
18501;SDS011;68437;52.236;5.710;2024-01-10T14:34:28;16.53;;;7.00;;
18501;SDS011;68437;52.236;5.710;2024-01-10T14:36:56;17.33;;;7.67;;
18501;SDS011;68437;52.236;5.710;2024-01-10T14:39:23;19.50;;;7.13;;
18501;SDS011;68437;52.236;5.710;2024-01-10T14:41:50;16.30;;;6.70;;
18501;SDS011;68437;52.236;5.710;2024-01-10T14:44:17;19.30;;;7.37;;